createdAt,value
2019-04-27T00:01:55.533Z,99.90
2019-04-27T00:04:48.682Z,99.90
2019-04-27T00:07:21.210Z,99.90
2019-04-27T00:10:13.559Z,99.90
2019-04-27T00:12:44.038Z,99.90
2019-04-27T00:15:37.915Z,99.90
2019-04-27T00:18:13.952Z,99.90
2019-04-27T00:20:54.846Z,99.90
2019-04-27T00:23:31.084Z,99.90
2019-04-27T00:25:59.763Z,99.90
2019-04-27T00:28:33.219Z,99.90
2019-04-27T00:31:05.027Z,99.90
2019-04-27T00:33:36.820Z,99.90
2019-04-27T00:36:07.009Z,99.90
2019-04-27T00:38:37.309Z,99.90
2019-04-27T00:41:15.541Z,99.90
2019-04-27T00:43:45.783Z,99.90
2019-04-27T00:46:14.263Z,99.90
2019-04-27T00:48:53.416Z,99.90
2019-04-27T00:51:23.191Z,99.90
2019-04-27T00:53:55.059Z,99.90
2019-04-27T00:56:46.734Z,99.90
2019-04-27T00:59:24.067Z,99.90
2019-04-27T01:02:00.095Z,99.90
2019-04-27T01:04:35.879Z,99.90
2019-04-27T01:07:25.349Z,99.90
2019-04-27T01:09:54.035Z,99.90
2019-04-27T01:12:28.668Z,99.90
2019-04-27T01:15:06.010Z,99.90
2019-04-27T01:17:33.771Z,99.90
2019-04-27T01:20:05.807Z,99.90
2019-04-27T01:22:39.521Z,99.90
2019-04-27T01:25:08.853Z,99.90
2019-04-27T01:27:49.427Z,99.90
2019-04-27T01:30:21.296Z,99.90
2019-04-27T01:32:59.574Z,99.90
2019-04-27T01:35:28.868Z,99.90
2019-04-27T01:38:00.507Z,99.90
2019-04-27T01:40:30.651Z,99.90
2019-04-27T01:42:59.336Z,99.90
2019-04-27T01:45:36.268Z,99.90
2019-04-27T01:48:06.467Z,99.90
2019-04-27T01:50:39.285Z,99.90
2019-04-27T01:53:31.512Z,99.90
2019-04-27T01:56:09.225Z,99.90
2019-04-27T01:58:39.571Z,99.90
2019-04-27T02:01:30.691Z,99.90
2019-04-27T02:04:12.483Z,99.90
2019-04-27T02:06:49.074Z,99.90
2019-04-27T02:09:23.604Z,99.90
2019-04-27T02:11:52.343Z,99.90
2019-04-27T02:14:21.027Z,99.90
2019-04-27T02:16:52.270Z,99.90
2019-04-27T02:19:29.212Z,99.90
2019-04-27T02:22:02.849Z,99.90
2019-04-27T02:24:41.983Z,99.90
2019-04-27T02:27:16.464Z,99.90
2019-04-27T02:29:46.839Z,99.90
2019-04-27T02:33:00.148Z,99.90
2019-04-27T02:35:30.896Z,99.90
2019-04-27T02:38:03.878Z,99.90
2019-04-27T02:40:52.415Z,99.90
2019-04-27T02:43:29.733Z,99.90
2019-04-27T02:46:00.207Z,99.90
2019-04-27T02:48:34.457Z,99.90
2019-04-27T02:53:56.723Z,99.90
2019-04-27T02:56:32.930Z,99.90
2019-04-27T02:59:06.141Z,99.90
2019-04-27T03:02:11.203Z,99.90
2019-04-27T03:04:42.749Z,99.90
2019-04-27T03:07:14.518Z,99.90
2019-04-27T03:09:50.600Z,99.90
2019-04-27T03:12:21.944Z,99.90
2019-04-27T03:14:59.437Z,99.90
2019-04-27T03:17:39.360Z,99.90
2019-04-27T03:20:13.562Z,99.90
2019-04-27T03:22:43.893Z,99.90
2019-04-27T03:28:16.493Z,99.90
2019-04-27T03:30:45.480Z,99.90
2019-04-27T03:33:17.144Z,99.90
2019-04-27T03:35:52.566Z,99.90
2019-04-27T03:38:29.902Z,99.90
2019-04-27T03:41:04.443Z,99.90
2019-04-27T03:43:33.073Z,99.90
2019-04-27T03:46:10.133Z,99.90
2019-04-27T03:48:40.441Z,99.90
2019-04-27T03:51:24.709Z,99.90
2019-04-27T03:56:40.221Z,99.90
2019-04-27T04:01:58.928Z,99.90
2019-04-27T04:04:32.687Z,99.90
2019-04-27T04:07:13.056Z,99.90
2019-04-27T04:09:44.246Z,99.90
2019-04-27T04:12:32.855Z,99.90
2019-04-27T04:15:00.841Z,99.90
2019-04-27T04:17:31.268Z,99.90
2019-04-27T04:20:01.934Z,99.90
2019-04-27T04:22:32.318Z,99.90
2019-04-27T04:25:00.919Z,99.90
2019-04-27T04:27:33.975Z,99.90
2019-04-27T04:30:05.830Z,99.90
2019-04-27T04:32:39.587Z,99.90
2019-04-27T04:35:24.191Z,99.90
2019-04-27T04:38:01.794Z,99.90
2019-04-27T04:40:43.426Z,99.90
2019-04-27T04:43:20.986Z,99.90
2019-04-27T04:45:56.696Z,99.90
2019-04-27T04:48:30.434Z,99.90
2019-04-27T04:51:10.446Z,99.90
2019-04-27T04:53:41.104Z,99.90
2019-04-27T04:56:13.354Z,99.90
2019-04-27T04:58:51.191Z,99.90
2019-04-27T05:01:22.519Z,99.90
2019-04-27T05:03:52.646Z,99.90
2019-04-27T05:06:25.493Z,99.90
2019-04-27T05:08:55.712Z,99.90
2019-04-27T05:11:49.307Z,99.90
2019-04-27T05:14:19.788Z,99.90
2019-04-27T05:16:48.904Z,99.90
2019-04-27T05:19:21.992Z,99.90
2019-04-27T05:21:52.365Z,99.90
2019-04-27T05:24:23.021Z,99.90
2019-04-27T05:26:54.786Z,99.90
2019-04-27T05:29:32.534Z,99.90
2019-04-27T05:32:09.153Z,99.90
2019-04-27T05:34:44.566Z,99.90
2019-04-27T05:37:15.276Z,99.90
2019-04-27T05:39:45.703Z,99.90
2019-04-27T05:42:17.564Z,99.90
2019-04-27T05:45:22.809Z,99.90
2019-04-27T05:48:00.717Z,99.90
2019-04-27T05:50:37.643Z,99.90
2019-04-27T05:53:10.264Z,99.90
2019-04-27T05:55:44.885Z,99.90
2019-04-27T05:58:23.363Z,99.90
2019-04-27T06:00:53.467Z,99.90
2019-04-27T06:03:26.914Z,99.90
2019-04-27T06:05:53.803Z,99.90
2019-04-27T06:08:30.738Z,99.90
2019-04-27T06:11:04.260Z,99.90
2019-04-27T06:13:36.694Z,99.90
2019-04-27T06:16:09.342Z,99.90
2019-04-27T06:18:39.619Z,99.90
2019-04-27T06:21:12.514Z,99.90
2019-04-27T06:23:41.058Z,99.90
2019-04-27T06:26:13.996Z,99.90
2019-04-27T06:28:53.443Z,99.90
2019-04-27T06:31:23.522Z,99.90
2019-04-27T06:33:53.788Z,99.90
2019-04-27T06:36:22.648Z,99.90
2019-04-27T06:38:53.734Z,99.90
2019-04-27T06:41:23.890Z,99.90
2019-04-27T06:44:13.134Z,99.90
2019-04-27T06:46:48.983Z,99.90
2019-04-27T06:49:47.207Z,99.90
2019-04-27T06:52:23.500Z,98.50
2019-04-27T06:54:56.124Z,98.00
2019-04-27T06:57:39.402Z,96.80
2019-04-27T07:00:13.775Z,99.80
2019-04-27T07:02:46.582Z,98.80
2019-04-27T07:05:16.715Z,97.90
2019-04-27T07:07:45.258Z,98.50
2019-04-27T07:10:15.824Z,98.60
2019-04-27T07:12:49.824Z,95.40
2019-04-27T07:15:20.059Z,94.00
2019-04-27T07:17:48.780Z,95.60
2019-04-27T07:20:21.515Z,93.70
2019-04-27T07:22:49.987Z,93.40
2019-04-27T07:25:23.762Z,92.70
2019-04-27T07:27:54.187Z,87.50
2019-04-27T07:30:28.720Z,86.70
2019-04-27T07:33:00.979Z,87.00
2019-04-27T07:35:33.316Z,83.10
2019-04-27T07:38:07.802Z,85.70
2019-04-27T07:40:41.782Z,86.00
2019-04-27T07:43:11.285Z,84.50
2019-04-27T07:45:41.850Z,84.20
2019-04-27T07:48:14.698Z,85.20
2019-04-27T07:50:45.126Z,81.80
2019-04-27T07:53:16.607Z,82.80
2019-04-27T07:55:50.998Z,85.10
2019-04-27T07:58:31.364Z,79.50
2019-04-27T08:01:00.086Z,75.40
2019-04-27T08:03:36.146Z,68.80
2019-04-27T08:06:04.743Z,70.10
2019-04-27T08:08:33.287Z,68.30
2019-04-27T08:11:06.394Z,65.00
2019-04-27T08:13:33.309Z,66.30
2019-04-27T08:16:10.171Z,63.50
2019-04-27T08:18:44.322Z,65.60
2019-04-27T08:21:14.316Z,60.70
2019-04-27T08:23:48.963Z,62.40
2019-04-27T08:26:20.118Z,65.70
2019-04-27T08:28:58.638Z,61.30
2019-04-27T08:31:31.335Z,60.30
2019-04-27T08:34:04.770Z,59.60
2019-04-27T08:36:36.053Z,58.10
2019-04-27T08:39:13.394Z,59.00
2019-04-27T08:41:46.355Z,61.50
2019-04-27T08:44:14.875Z,59.70
2019-04-27T08:46:46.744Z,59.20
2019-04-27T08:49:21.021Z,62.80
2019-04-27T08:52:01.662Z,57.20
2019-04-27T08:54:29.691Z,59.90
2019-04-27T09:00:01.108Z,63.70
2019-04-27T09:02:44.666Z,60.40
2019-04-27T09:05:06.324Z,57.40
2019-04-27T09:07:36.522Z,57.20
2019-04-27T09:10:13.512Z,59.40
2019-04-27T09:12:49.436Z,62.50
2019-04-27T09:15:35.068Z,62.10
2019-04-27T09:18:08.811Z,62.80
2019-04-27T09:20:49.217Z,62.90
2019-04-27T09:23:22.482Z,63.10
2019-04-27T09:25:51.483Z,65.10
2019-04-27T09:28:23.132Z,66.50
2019-04-27T09:31:29.519Z,67.10
2019-04-27T09:33:51.502Z,62.20
2019-04-27T09:36:22.251Z,62.60
2019-04-27T09:39:08.480Z,60.00
2019-04-27T09:41:36.858Z,59.10
2019-04-27T09:44:16.135Z,58.00
2019-04-27T09:46:52.443Z,58.80
2019-04-27T09:49:18.336Z,59.70
2019-04-27T09:51:48.080Z,59.90
2019-04-27T09:54:19.748Z,58.40
2019-04-27T09:56:50.915Z,58.10
2019-04-27T10:02:17.679Z,57.60
2019-04-27T10:04:58.224Z,60.50
2019-04-27T10:07:26.908Z,60.40
2019-04-27T10:10:06.447Z,60.40
2019-04-27T10:12:38.355Z,60.50
2019-04-27T10:15:07.810Z,61.20
2019-04-27T10:17:41.306Z,61.30
2019-04-27T10:20:16.832Z,63.10
2019-04-27T10:22:56.413Z,61.40
2019-04-27T10:25:29.798Z,59.90
2019-04-27T10:28:06.709Z,60.60
2019-04-27T10:30:45.875Z,60.50
2019-04-27T10:33:28.309Z,60.60
2019-04-27T10:35:56.545Z,62.30
2019-04-27T10:38:36.534Z,62.30
2019-04-27T10:41:17.307Z,63.00
2019-04-27T10:43:52.038Z,62.90
2019-04-27T10:46:25.818Z,65.30
2019-04-27T10:48:56.186Z,66.00
2019-04-27T10:51:33.929Z,65.10
2019-04-27T10:54:08.127Z,67.70
2019-04-27T10:56:42.187Z,68.30
2019-04-27T10:59:29.490Z,70.40
2019-04-27T11:02:01.612Z,70.20
2019-04-27T11:07:52.659Z,74.80
2019-04-27T11:10:26.045Z,74.90
2019-04-27T11:12:56.069Z,80.80
2019-04-27T11:15:26.892Z,82.60
2019-04-27T11:17:59.182Z,85.70
2019-04-27T11:20:36.264Z,89.90
2019-04-27T11:23:12.377Z,90.00
2019-04-27T11:25:46.846Z,87.10
2019-04-27T11:28:16.748Z,83.70
2019-04-27T11:30:45.972Z,86.00
2019-04-27T11:33:16.615Z,84.20
2019-04-27T11:35:51.943Z,82.70
2019-04-27T11:38:22.342Z,81.40
2019-04-27T11:40:59.396Z,73.60
2019-04-27T11:43:31.166Z,73.10
2019-04-27T11:45:59.780Z,75.40
2019-04-27T11:48:33.467Z,68.20
2019-04-27T11:51:06.970Z,68.20
2019-04-27T11:54:01.184Z,69.60
2019-04-27T11:56:13.477Z,72.00
2019-04-27T12:01:38.527Z,84.40
2019-04-27T12:04:12.744Z,90.10
2019-04-27T12:06:46.243Z,91.20
2019-04-27T12:09:22.924Z,94.10
2019-04-27T12:11:50.421Z,95.40
2019-04-27T12:14:20.622Z,94.30
2019-04-27T12:17:13.747Z,94.40
2019-04-27T12:19:42.679Z,91.40
2019-04-27T12:22:16.384Z,89.80
2019-04-27T12:25:02.228Z,91.90
2019-04-27T12:27:39.693Z,90.30
2019-04-27T12:36:27.515Z,92.50
2019-04-27T12:39:12.484Z,93.10
2019-04-27T12:41:43.100Z,92.20
2019-04-27T12:47:18.499Z,92.60
2019-04-27T12:49:57.975Z,90.50
2019-04-27T12:52:36.094Z,90.00
2019-04-27T12:55:39.655Z,90.10
2019-04-27T12:58:14.080Z,90.70
2019-04-27T13:07:31.921Z,88.70
2019-04-27T13:10:10.679Z,90.40
2019-04-27T13:12:48.560Z,92.00
2019-04-27T13:18:13.697Z,87.20
2019-04-27T13:20:45.691Z,87.30
2019-04-27T13:23:17.106Z,88.80
2019-04-27T13:25:57.148Z,89.20
2019-04-27T13:28:43.833Z,89.80
2019-04-27T13:34:02.781Z,89.40
2019-04-27T13:42:33.673Z,86.40
2019-04-27T13:45:10.450Z,82.50
2019-04-27T13:48:21.603Z,90.30
2019-04-27T13:51:35.918Z,86.00
2019-04-27T13:54:23.695Z,86.00
2019-04-27T13:56:51.573Z,86.70
2019-04-27T13:59:38.238Z,83.10
2019-04-27T14:02:13.242Z,83.70
2019-04-27T14:04:46.212Z,83.70
2019-04-27T14:07:18.707Z,85.00
2019-04-27T14:09:48.609Z,86.00
2019-04-27T14:12:21.322Z,87.60
2019-04-27T14:14:59.101Z,87.50
2019-04-27T14:17:29.589Z,87.40
2019-04-27T14:20:10.323Z,86.50
2019-04-27T14:22:42.168Z,85.40
2019-04-27T14:25:13.589Z,86.80
2019-04-27T14:27:54.795Z,87.60
2019-04-27T14:30:23.871Z,85.30
2019-04-27T14:32:55.487Z,83.50
2019-04-27T14:35:40.366Z,85.20
2019-04-27T14:38:11.631Z,86.50
2019-04-27T14:40:50.326Z,83.80
2019-04-27T14:43:26.224Z,87.80
2019-04-27T14:45:54.732Z,86.80
2019-04-27T14:48:23.591Z,91.30
2019-04-27T14:50:55.133Z,91.80
2019-04-27T14:53:34.339Z,92.20
2019-04-27T14:56:14.171Z,92.90
2019-04-27T14:59:03.501Z,79.60
2019-04-27T15:01:42.381Z,82.40
2019-04-27T15:04:19.456Z,86.50
2019-04-27T15:06:50.147Z,88.60
2019-04-27T15:09:21.479Z,91.00
2019-04-27T15:11:53.467Z,89.80
2019-04-27T15:14:23.965Z,94.30
2019-04-27T15:16:57.085Z,92.80
2019-04-27T15:19:33.721Z,94.50
2019-04-27T15:22:04.515Z,95.50
2019-04-27T15:24:36.138Z,94.60
2019-04-27T15:27:08.173Z,93.90
2019-04-27T15:29:44.179Z,92.90
2019-04-27T15:32:23.569Z,92.90
2019-04-27T15:35:05.091Z,93.60
2019-04-27T15:38:04.778Z,94.30
2019-04-27T15:43:27.334Z,92.00
2019-04-27T15:46:10.155Z,93.70
2019-04-27T15:48:41.286Z,92.90
2019-04-27T15:51:24.060Z,92.80
2019-04-27T15:53:53.904Z,93.10
2019-04-27T15:56:22.783Z,93.40
2019-04-27T15:58:55.737Z,93.10
2019-04-27T16:01:24.812Z,93.00
2019-04-27T16:03:58.251Z,93.40
2019-04-27T16:06:38.376Z,91.70
2019-04-27T16:09:16.109Z,93.60
2019-04-27T16:11:57.778Z,90.30
2019-04-27T16:14:28.798Z,91.70
2019-04-27T16:17:03.077Z,88.70
2019-04-27T16:19:40.211Z,87.80
2019-04-27T16:22:04.586Z,89.50
2019-04-27T16:24:39.135Z,92.10
2019-04-27T16:27:09.796Z,91.50
2019-04-27T16:29:38.990Z,89.60
2019-04-27T16:32:11.328Z,90.80
2019-04-27T16:34:43.360Z,92.90
2019-04-27T16:37:22.596Z,93.10
2019-04-27T16:39:53.973Z,93.30
2019-04-27T16:42:31.312Z,92.70
2019-04-27T16:44:59.815Z,92.40
2019-04-27T16:47:34.607Z,92.30
2019-04-27T16:50:04.723Z,91.60
2019-04-27T16:52:34.901Z,94.90
2019-04-27T16:55:12.359Z,93.80
2019-04-27T16:57:50.326Z,93.80
2019-04-27T17:00:30.232Z,94.50
2019-04-27T17:03:06.739Z,94.50
2019-04-27T17:05:38.302Z,93.90
2019-04-27T17:08:22.437Z,93.40
2019-04-27T17:13:30.639Z,93.50
2019-04-27T17:16:19.136Z,94.20
2019-04-27T17:18:57.766Z,94.90
2019-04-27T17:21:33.393Z,94.00
2019-04-27T17:24:04.715Z,92.60
2019-04-27T17:26:43.702Z,93.00
2019-04-27T17:29:20.528Z,91.60
2019-04-27T17:31:56.639Z,90.50
2019-04-27T17:34:25.306Z,91.50
2019-04-27T17:36:54.809Z,92.70
2019-04-27T17:39:29.851Z,91.40
2019-04-27T17:42:00.736Z,89.60
2019-04-27T17:44:31.920Z,90.60
2019-04-27T17:47:00.458Z,91.00
2019-04-27T17:49:33.103Z,87.40
2019-04-27T17:52:23.059Z,88.80
2019-04-27T17:54:58.991Z,89.10
2019-04-27T17:57:30.181Z,89.20
2019-04-27T18:00:09.379Z,90.20
2019-04-27T18:02:42.434Z,90.30
2019-04-27T18:05:09.482Z,91.70
2019-04-27T18:07:46.425Z,92.30
2019-04-27T18:10:21.837Z,92.40
2019-04-27T18:12:48.533Z,92.80
2019-04-27T18:15:20.552Z,93.20
2019-04-27T18:17:52.139Z,93.10
2019-04-27T18:20:24.251Z,93.00
2019-04-27T18:22:54.474Z,92.80
2019-04-27T18:25:30.447Z,93.20
2019-04-27T18:28:14.869Z,93.80
2019-04-27T18:30:57.089Z,94.60
2019-04-27T18:33:32.545Z,95.20
2019-04-27T18:36:13.785Z,97.00
2019-04-27T18:38:39.075Z,98.10
2019-04-27T18:41:11.796Z,97.80
2019-04-27T18:43:50.773Z,98.00
2019-04-27T18:46:24.433Z,98.20
2019-04-27T18:48:53.853Z,98.90
2019-04-27T18:51:34.520Z,99.10
2019-04-27T18:54:05.226Z,99.00
2019-04-27T18:56:38.444Z,99.80
2019-04-27T18:59:08.502Z,99.90
2019-04-27T19:01:40.188Z,99.90
2019-04-27T19:04:10.360Z,99.90
2019-04-27T19:06:42.456Z,99.90
2019-04-27T19:11:57.031Z,99.90
2019-04-27T19:14:28.288Z,99.30
2019-04-27T19:17:03.076Z,99.50
2019-04-27T19:19:39.863Z,99.90
2019-04-27T19:22:11.554Z,99.60
2019-04-27T19:24:44.273Z,99.90
2019-04-27T19:27:20.524Z,99.70
2019-04-27T19:30:11.819Z,99.90
2019-04-27T19:32:43.597Z,99.50
2019-04-27T19:38:19.667Z,99.80
2019-04-27T19:40:53.765Z,99.90
2019-04-27T19:43:30.155Z,99.60
2019-04-27T19:46:02.065Z,99.20
2019-04-27T19:48:41.206Z,98.00
2019-04-27T19:51:18.727Z,92.70
2019-04-27T19:53:48.660Z,91.50
2019-04-27T19:56:28.323Z,93.60
2019-04-27T19:59:08.946Z,93.70
2019-04-27T20:01:49.901Z,93.80
2019-04-27T20:04:21.639Z,94.70
2019-04-27T20:06:52.956Z,94.60
2019-04-27T20:09:28.960Z,94.20
2019-04-27T20:11:57.702Z,94.50
2019-04-27T20:14:27.816Z,95.10
2019-04-27T20:16:59.552Z,95.40
2019-04-27T20:19:31.475Z,95.80
2019-04-27T20:22:03.498Z,95.50
2019-04-27T20:24:35.218Z,94.90
2019-04-27T20:27:05.856Z,95.20
2019-04-27T20:29:34.422Z,94.80
2019-04-27T20:32:09.110Z,95.00
2019-04-27T20:34:41.136Z,95.00
2019-04-27T20:37:12.719Z,94.90
2019-04-27T20:39:42.832Z,95.20
2019-04-27T20:42:12.532Z,95.80
2019-04-27T20:44:43.048Z,96.80
2019-04-27T20:47:13.187Z,97.50
2019-04-27T20:49:48.052Z,97.60
2019-04-27T20:52:40.600Z,96.40
2019-04-27T20:55:11.248Z,97.10
2019-04-27T20:57:45.012Z,95.30
2019-04-27T21:00:15.473Z,95.00
2019-04-27T21:02:47.179Z,94.80
2019-04-27T21:05:27.629Z,94.60
2019-04-27T21:08:11.618Z,94.50
2019-04-27T21:10:41.275Z,94.60
2019-04-27T21:13:16.144Z,94.60
2019-04-27T21:15:47.111Z,95.20
2019-04-27T21:18:19.038Z,95.80
2019-04-27T21:20:56.875Z,95.10
2019-04-27T21:23:26.986Z,95.60
2019-04-27T21:26:02.013Z,96.60
2019-04-27T21:28:36.362Z,95.60
2019-04-27T21:31:08.180Z,96.70
2019-04-27T21:33:36.714Z,97.40
2019-04-27T21:36:34.418Z,97.40
2019-04-27T21:39:09.271Z,97.00
2019-04-27T21:41:52.815Z,97.00
2019-04-27T21:44:23.583Z,97.00
2019-04-27T21:47:17.497Z,96.80
2019-04-27T21:49:56.027Z,96.50
2019-04-27T21:52:36.822Z,96.30
2019-04-27T21:55:14.095Z,96.40
2019-04-27T21:57:45.612Z,96.40
2019-04-27T22:00:54.875Z,95.90
2019-04-27T22:03:34.134Z,96.20
2019-04-27T22:06:09.194Z,97.30
2019-04-27T22:08:51.179Z,97.50
2019-04-27T22:11:21.749Z,97.80
2019-04-27T22:14:01.323Z,97.60
2019-04-27T22:16:36.873Z,97.50
2019-04-27T22:19:09.072Z,97.70
2019-04-27T22:21:43.179Z,98.60
2019-04-27T22:24:16.204Z,97.40
2019-04-27T22:26:44.891Z,97.80
2019-04-27T22:29:22.869Z,98.10
2019-04-27T22:31:51.739Z,96.70
2019-04-27T22:34:23.650Z,96.80
2019-04-27T22:36:52.714Z,96.90
2019-04-27T22:42:51.974Z,96.70
2019-04-27T22:48:26.618Z,95.80
2019-04-27T22:51:01.611Z,95.70
2019-04-27T22:53:47.303Z,95.70
2019-04-27T22:56:29.302Z,96.20
2019-04-27T22:59:08.526Z,95.40
2019-04-27T23:01:42.642Z,94.00
2019-04-27T23:07:21.267Z,97.20
2019-04-27T23:09:51.669Z,96.80
2019-04-27T23:12:45.516Z,94.10
2019-04-27T23:15:19.175Z,93.90
2019-04-27T23:18:17.257Z,95.80
2019-04-27T23:20:49.315Z,94.20
2019-04-27T23:23:22.239Z,95.10
2019-04-27T23:25:51.326Z,96.20
2019-04-27T23:28:31.184Z,94.70
2019-04-27T23:31:04.230Z,94.30
2019-04-27T23:33:52.802Z,94.00
2019-04-27T23:36:16.663Z,94.40
2019-04-27T23:38:52.835Z,93.50
2019-04-27T23:41:32.940Z,94.00
2019-04-27T23:44:21.340Z,94.60
2019-04-27T23:46:41.624Z,95.60
2019-04-27T23:49:20.348Z,95.80
2019-04-27T23:52:11.783Z,95.60
2019-04-27T23:54:53.250Z,95.90
2019-04-27T23:57:41.124Z,96.00
